Time;durP1;ratioP1;P1;durP2;ratioP2;P2;SDS_P1;SDS_P2;PMS_P1;PMS_P2;Temp;Humidity;BMP_temperature;BMP_pressure;BME280_temperature;BME280_humidity;BME280_pressure;Samples;Min_cycle;Max_cycle;Signal;HPM_P1;HPM_P2
2022/03/30 00:01:59;;;;;;;8.30;2.20;;;;;;;5.07;70.85;100933.44;5031900;28;20551;-73
2022/03/30 00:04:25;;;;;;;8.53;2.30;;;;;;;5.04;70.90;100932.44;5040189;28;20565;-74
2022/03/30 00:06:50;;;;;;;10.50;2.27;;;;;;;5.03;70.71;100929.06;5060038;28;20697;-74
2022/03/30 00:09:15;;;;;;;12.23;2.90;;;;;;;5.02;70.80;100922.22;5046561;28;20754;-74
2022/03/30 00:11:41;;;;;;;9.53;2.57;;;;;;;5.04;70.86;100922.28;5033563;28;20650;-73
2022/03/30 00:14:06;;;;;;;8.93;2.90;;;;;;;5.01;71.41;100927.25;5030361;28;20225;-74
2022/03/30 00:16:34;;;;;;;7.57;1.90;;;;;;;5.02;71.74;100932.38;5031886;28;20209;-73
2022/03/30 00:18:59;;;;;;;6.50;2.37;;;;;;;4.97;71.72;100920.31;5013849;28;20655;-74
2022/03/30 00:21:25;;;;;;;9.30;2.60;;;;;;;4.95;71.33;100922.78;5014125;28;20197;-73
2022/03/30 00:23:52;;;;;;;11.53;2.57;;;;;;;4.92;71.95;100920.09;5030441;28;20186;-73
2022/03/30 00:26:18;;;;;;;10.93;2.63;;;;;;;4.88;71.96;100915.69;5031084;28;20202;-74
2022/03/30 00:28:43;;;;;;;9.87;2.37;;;;;;;4.85;71.82;100917.25;5032876;28;20548;-73
2022/03/30 00:31:09;;;;;;;9.50;2.47;;;;;;;4.82;72.72;100917.09;5031816;28;20644;-74
2022/03/30 00:33:34;;;;;;;9.57;2.90;;;;;;;4.73;72.46;100906.56;5031412;28;20544;-73
2022/03/30 00:35:59;;;;;;;11.87;2.37;;;;;;;4.76;72.21;100912.66;5030019;28;20833;-73
2022/03/30 00:38:25;;;;;;;8.60;2.00;;;;;;;4.78;72.73;100902.56;5030588;28;20654;-73
2022/03/30 00:40:50;;;;;;;11.50;2.40;;;;;;;4.73;72.80;100904.00;5031188;28;20195;-74
2022/03/30 00:43:16;;;;;;;14.30;3.07;;;;;;;4.69;73.14;100909.78;5031027;28;20198;-74
2022/03/30 00:45:41;;;;;;;10.70;2.50;;;;;;;4.69;73.48;100900.50;5031190;28;20191;-73
2022/03/30 00:48:07;;;;;;;11.33;2.83;;;;;;;4.65;73.73;100905.38;5031122;28;20178;-73
2022/03/30 00:50:33;;;;;;;14.03;3.23;;;;;;;4.59;74.10;100895.81;5029692;28;20190;-74
2022/03/30 00:52:58;;;;;;;11.40;2.03;;;;;;;4.62;73.76;100897.63;5030891;28;20179;-73
2022/03/30 00:55:25;;;;;;;9.23;2.30;;;;;;;4.57;73.80;100894.91;5030821;28;20210;-74
2022/03/30 00:57:53;;;;;;;13.63;2.90;;;;;;;4.56;73.82;100902.44;5029317;28;20194;-73
2022/03/30 01:00:19;;;;;;;9.10;2.53;;;;;;;4.55;74.06;100905.78;5029511;28;20194;-73
2022/03/30 01:02:46;;;;;;;8.60;2.10;;;;;;;4.51;74.55;100897.16;5030767;28;20183;-73
2022/03/30 01:05:13;;;;;;;7.53;2.10;;;;;;;4.50;74.81;100900.50;5043227;28;20234;-73
2022/03/30 01:07:39;;;;;;;11.13;2.27;;;;;;;4.47;74.51;100889.34;5030776;28;20577;-73
2022/03/30 01:10:06;;;;;;;6.27;2.10;;;;;;;4.49;75.14;100893.69;5030617;28;20265;-72
2022/03/30 01:12:34;;;;;;;9.00;2.37;;;;;;;4.50;75.09;100897.06;5030464;28;20672;-73
2022/03/30 01:15:00;;;;;;;9.13;2.50;;;;;;;4.45;74.66;100896.00;5038470;28;20659;-73
2022/03/30 01:17:25;;;;;;;8.63;2.23;;;;;;;4.44;74.91;100894.28;5046343;28;20224;-73
2022/03/30 01:19:50;;;;;;;8.20;2.57;;;;;;;4.41;74.76;100894.13;5050474;28;20582;-73
2022/03/30 01:22:16;;;;;;;6.80;2.63;;;;;;;4.35;74.83;100891.34;5044212;28;20293;-73
2022/03/30 01:24:41;;;;;;;9.53;2.30;;;;;;;4.30;74.75;100883.56;5061752;28;20204;-74
2022/03/30 01:27:07;;;;;;;4.03;1.83;;;;;;;4.22;75.79;100881.44;5070245;28;20200;-73
2022/03/30 01:32:27;;;;;;;6.40;1.87;;;;;;;4.19;76.20;100869.50;5068624;28;20647;-73
2022/03/30 01:34:59;;;;;;;9.47;2.23;;;;;;;4.15;76.07;100861.72;5069949;28;20211;-74
2022/03/30 01:37:28;;;;;;;9.60;2.07;;;;;;;4.15;75.70;100865.09;5069407;28;20216;-73
2022/03/30 01:39:57;;;;;;;7.43;2.60;;;;;;;4.10;76.88;100855.59;5068494;28;20181;-73
2022/03/30 01:42:24;;;;;;;8.47;1.87;;;;;;;4.12;76.72;100853.97;5068237;28;20192;-73
2022/03/30 01:44:50;;;;;;;5.83;1.90;;;;;;;4.06;76.64;100854.59;5069825;28;20192;-73
2022/03/30 01:47:16;;;;;;;6.93;2.43;;;;;;;4.09;76.88;100852.19;5069407;28;20292;-73
2022/03/30 01:49:41;;;;;;;8.20;2.37;;;;;;;4.06;77.24;100848.66;5069628;28;20197;-73
2022/03/30 01:52:08;;;;;;;16.27;2.93;;;;;;;3.99;76.76;100844.97;5050812;28;20192;-73
2022/03/30 01:54:39;;;;;;;6.93;2.00;;;;;;;4.03;77.68;100839.25;5069526;28;20197;-73
2022/03/30 01:57:06;;;;;;;7.80;2.30;;;;;;;4.04;76.64;100835.03;5068433;28;20262;-73
2022/03/30 01:59:33;;;;;;;8.27;2.47;;;;;;;4.01;77.65;100835.75;5069608;28;20180;-72
2022/03/30 02:01:58;;;;;;;12.53;2.50;;;;;;;4.01;77.23;100840.81;5069216;28;20184;-72
2022/03/30 02:04:24;;;;;;;10.57;2.70;;;;;;;4.06;77.55;100835.97;5058186;28;20179;-71
2022/03/30 02:06:50;;;;;;;12.50;2.37;;;;;;;4.05;77.31;100839.31;5040942;28;20193;-72
2022/03/30 02:09:15;;;;;;;7.73;2.40;;;;;;;4.04;78.28;100835.03;5056238;28;20212;-72
2022/03/30 02:11:40;;;;;;;8.00;2.27;;;;;;;4.07;78.90;100837.72;5069344;28;20185;-72
2022/03/30 02:14:06;;;;;;;8.07;2.33;;;;;;;4.08;78.43;100834.38;5067673;28;20247;-72
2022/03/30 02:16:31;;;;;;;9.67;2.70;;;;;;;4.08;79.18;100825.13;5051192;28;20231;-73
2022/03/30 02:18:57;;;;;;;9.50;2.73;;;;;;;4.06;79.18;100824.19;5069203;28;20279;-72
2022/03/30 02:21:24;;;;;;;12.80;2.50;;;;;;;4.08;78.83;100832.72;5044433;28;20225;-72
2022/03/30 02:23:50;;;;;;;10.07;2.90;;;;;;;4.07;78.52;100830.09;5043672;28;20196;-72
2022/03/30 02:26:15;;;;;;;6.30;2.20;;;;;;;4.06;78.95;100831.78;5046005;28;20198;-72
2022/03/30 02:28:51;;;;;;;10.47;2.57;;;;;;;4.03;79.02;100830.75;5036372;28;20210;-72
2022/03/30 02:31:17;;;;;;;6.83;2.60;;;;;;;4.05;79.03;100830.03;5029652;28;20269;-72
2022/03/30 02:33:42;;;;;;;12.13;3.20;;;;;;;4.05;78.52;100829.19;5027795;28;20277;-73
2022/03/30 02:36:08;;;;;;;7.07;2.50;;;;;;;4.03;78.83;100823.16;5029550;28;20293;-75
2022/03/30 02:38:33;;;;;;;10.30;2.33;;;;;;;4.01;79.37;100823.09;5029584;28;20618;-74
2022/03/30 02:40:59;;;;;;;12.03;3.20;;;;;;;4.05;78.84;100817.38;5028547;28;20645;-74
2022/03/30 02:43:24;;;;;;;9.17;2.57;;;;;;;4.08;78.70;100819.16;5037205;28;20574;-75
2022/03/30 02:45:50;;;;;;;6.20;2.17;;;;;;;4.10;79.31;100812.53;5047103;28;20209;-73
2022/03/30 02:48:18;;;;;;;11.20;2.57;;;;;;;4.10;79.64;100815.91;5029892;28;20194;-74
2022/03/30 02:50:48;;;;;;;7.37;2.20;;;;;;;4.09;80.02;100814.19;5037092;28;20676;-73
2022/03/30 02:53:15;;;;;;;9.80;2.40;;;;;;;4.14;79.70;100814.41;5052891;28;20183;-73
2022/03/30 02:55:40;;;;;;;11.40;2.53;;;;;;;4.15;79.27;100816.13;5029196;28;20218;-74
2022/03/30 02:58:06;;;;;;;10.37;2.97;;;;;;;4.14;79.70;100815.25;5037298;28;20191;-73
2022/03/30 03:00:32;;;;;;;7.77;2.37;;;;;;;4.17;78.69;100809.44;5036532;28;20265;-73
2022/03/30 03:03:00;;;;;;;10.87;2.60;;;;;;;4.20;78.54;100807.06;5031548;28;20271;-74
2022/03/30 03:05:31;;;;;;;11.20;2.47;;;;;;;4.22;78.63;100803.78;5033459;28;20178;-73
2022/03/30 03:07:58;;;;;;;9.50;2.30;;;;;;;4.23;78.48;100802.13;5034232;28;20178;-74
2022/03/30 03:10:23;;;;;;;9.17;2.10;;;;;;;4.22;78.04;100800.38;5046114;28;20186;-73
2022/03/30 03:12:49;;;;;;;8.10;2.30;;;;;;;4.25;78.19;100805.59;5035132;28;20600;-75
2022/03/30 03:15:14;;;;;;;7.97;2.20;;;;;;;4.26;78.15;100802.25;5033348;28;20224;-75
2022/03/30 03:17:39;;;;;;;5.63;2.13;;;;;;;4.24;78.82;100802.16;5037061;28;20293;-75
2022/03/30 03:20:05;;;;;;;8.00;2.13;;;;;;;4.30;78.45;100799.03;5051840;28;20240;-74
2022/03/30 03:22:31;;;;;;;9.10;2.47;;;;;;;4.31;78.89;100799.13;5052372;28;20561;-74
2022/03/30 03:24:57;;;;;;;9.60;2.63;;;;;;;4.26;80.14;100798.06;5051698;28;20186;-74
2022/03/30 03:27:22;;;;;;;8.17;2.50;;;;;;;4.29;80.00;100799.84;5051667;28;20259;-74
2022/03/30 03:29:47;;;;;;;8.37;2.40;;;;;;;4.33;79.46;100802.56;5052994;28;20217;-74
2022/03/30 03:32:13;;;;;;;4.77;2.30;;;;;;;4.37;79.73;100794.31;5052825;28;20178;-74
2022/03/30 03:34:38;;;;;;;4.83;2.27;;;;;;;4.38;80.12;100797.72;5050718;28;20217;-75
2022/03/30 03:37:04;;;;;;;7.40;2.33;;;;;;;4.40;80.62;100799.50;5032398;28;20217;-74
2022/03/30 03:39:29;;;;;;;7.50;2.37;;;;;;;4.38;80.19;100796.03;5038275;28;20258;-74
2022/03/30 03:41:54;;;;;;;8.57;2.33;;;;;;;4.32;81.58;100790.72;5051205;28;20726;-75
2022/03/30 03:44:20;;;;;;;10.07;2.33;;;;;;;4.36;81.18;100789.16;5052641;28;20242;-74
2022/03/30 03:46:45;;;;;;;10.57;3.13;;;;;;;4.32;81.55;100793.25;5052048;28;20293;-74
2022/03/30 03:49:10;;;;;;;10.03;2.90;;;;;;;4.36;81.41;100790.03;5045332;28;20194;-74
2022/03/30 03:51:36;;;;;;;9.47;2.80;;;;;;;4.37;81.11;100785.84;5031693;28;20256;-74
2022/03/30 03:54:01;;;;;;;10.27;2.47;;;;;;;4.37;81.77;100788.38;5032738;28;20222;-73
2022/03/30 03:56:27;;;;;;;5.93;2.60;;;;;;;4.37;81.56;100786.69;5039322;28;20619;-74
2022/03/30 03:58:52;;;;;;;6.30;2.37;;;;;;;4.36;82.05;100792.56;5050827;28;20201;-74
2022/03/30 04:01:18;;;;;;;9.83;2.73;;;;;;;4.37;81.97;100783.31;5037555;28;20195;-74
2022/03/30 04:03:44;;;;;;;8.57;2.37;;;;;;;4.37;81.74;100789.22;5034224;28;20190;-74
2022/03/30 04:06:09;;;;;;;7.87;2.30;;;;;;;4.38;81.57;100790.13;5039060;28;20263;-75
2022/03/30 04:08:35;;;;;;;11.23;2.70;;;;;;;4.37;81.39;100788.38;5032277;28;20193;-74
2022/03/30 04:11:00;;;;;;;9.70;2.00;;;;;;;4.39;81.29;100786.78;5044058;28;20251;-74
2022/03/30 04:13:26;;;;;;;8.70;2.70;;;;;;;4.39;80.53;100787.66;5051624;28;20185;-74
2022/03/30 04:15:51;;;;;;;8.00;2.37;;;;;;;4.41;80.77;100788.56;5049925;28;20758;-75
2022/03/30 04:18:17;;;;;;;10.67;2.37;;;;;;;4.41;79.34;100780.97;5047074;28;20670;-75
2022/03/30 04:20:43;;;;;;;7.33;2.43;;;;;;;4.40;79.61;100793.56;5042223;28;20194;-74
2022/03/30 04:23:10;;;;;;;10.53;2.87;;;;;;;4.42;78.66;100785.22;5042885;28;20186;-74
2022/03/30 04:25:35;;;;;;;12.63;1.90;;;;;;;4.44;79.10;100788.72;5043761;28;20560;-74
2022/03/30 04:28:00;;;;;;;7.10;2.10;;;;;;;4.44;79.39;100791.25;5031776;28;20183;-74
2022/03/30 04:30:26;;;;;;;7.57;1.97;;;;;;;4.41;80.13;100788.56;5047087;28;20190;-74
2022/03/30 04:32:51;;;;;;;13.17;2.90;;;;;;;4.40;80.18;100786.84;5043914;28;20202;-74
2022/03/30 04:35:18;;;;;;;9.03;2.53;;;;;;;4.38;80.34;100780.81;5049955;28;20216;-74
2022/03/30 04:37:44;;;;;;;9.97;2.13;;;;;;;4.41;80.21;100785.16;5049854;28;20248;-74
2022/03/30 04:40:09;;;;;;;11.07;2.07;;;;;;;4.39;80.48;100777.50;5046525;28;20217;-73
2022/03/30 04:42:35;;;;;;;7.60;2.10;;;;;;;4.38;80.81;100783.34;5030234;28;20218;-74
2022/03/30 04:45:00;;;;;;;7.27;2.00;;;;;;;4.39;81.15;100789.31;5035377;28;20400;-73
2022/03/30 04:47:26;;;;;;;8.53;2.53;;;;;;;4.36;81.08;100784.97;5040063;28;20221;-74
2022/03/30 04:49:52;;;;;;;7.60;2.50;;;;;;;4.35;82.06;100785.78;5037737;28;20198;-74
2022/03/30 04:52:18;;;;;;;7.33;2.03;;;;;;;4.34;81.95;100788.25;5045937;28;20189;-74
2022/03/30 04:54:44;;;;;;;9.70;2.63;;;;;;;4.34;82.36;100781.53;5046636;28;20211;-75
2022/03/30 04:57:09;;;;;;;11.27;2.80;;;;;;;4.31;82.91;100776.31;5052214;28;20275;-74
2022/03/30 04:59:34;;;;;;;9.57;2.40;;;;;;;4.31;83.14;100778.84;5047332;28;20304;-73
2022/03/30 05:02:00;;;;;;;7.30;2.40;;;;;;;4.31;83.12;100781.38;5031948;28;20201;-74
2022/03/30 05:04:25;;;;;;;8.10;2.07;;;;;;;4.33;83.42;100787.38;5048277;28;20178;-74
2022/03/30 05:06:50;;;;;;;10.30;2.63;;;;;;;4.32;83.91;100782.25;5044159;28;20210;-73
2022/03/30 05:09:16;;;;;;;9.00;2.70;;;;;;;4.31;84.01;100778.84;5033144;28;20201;-74
2022/03/30 05:11:41;;;;;;;7.83;2.07;;;;;;;4.38;83.51;100785.03;5044592;28;20217;-73
2022/03/30 05:14:07;;;;;;;7.20;2.87;;;;;;;4.34;83.65;100791.66;5037278;28;20301;-73
2022/03/30 05:16:33;;;;;;;8.50;2.33;;;;;;;4.36;84.51;100794.22;5057532;28;20702;-72
2022/03/30 05:19:00;;;;;;;8.47;2.80;;;;;;;4.34;83.99;100801.78;5049569;28;20189;-72
2022/03/30 05:21:25;;;;;;;9.90;3.20;;;;;;;4.29;84.41;100793.13;5030823;28;20201;-72
2022/03/30 05:23:50;;;;;;;8.53;2.57;;;;;;;4.21;84.43;100789.38;5030634;28;20202;-73
2022/03/30 05:26:16;;;;;;;7.83;2.90;;;;;;;4.27;84.57;100788.75;5028502;28;20284;-73
2022/03/30 05:28:42;;;;;;;10.10;2.63;;;;;;;4.27;84.10;100782.03;5030415;28;20209;-73
2022/03/30 05:31:08;;;;;;;8.10;2.43;;;;;;;4.25;84.80;100786.19;5031478;28;20237;-73
2022/03/30 05:33:34;;;;;;;9.03;3.10;;;;;;;4.22;84.85;100788.59;5030476;28;20277;-73
2022/03/30 05:35:59;;;;;;;9.57;2.50;;;;;;;4.22;84.20;100785.16;5030451;28;20222;-73
2022/03/30 05:38:25;;;;;;;7.33;2.27;;;;;;;4.14;85.00;100786.53;5030610;28;20190;-73
2022/03/30 05:40:50;;;;;;;8.30;2.37;;;;;;;4.19;84.34;100782.53;5030320;28;20390;-73
2022/03/30 05:43:17;;;;;;;7.80;2.17;;;;;;;4.18;84.18;100781.66;5030270;28;20268;-73
2022/03/30 05:45:42;;;;;;;7.57;2.30;;;;;;;4.19;84.67;100785.91;5030393;28;20198;-73
2022/03/30 05:48:09;;;;;;;9.47;2.50;;;;;;;4.25;84.57;100786.19;5030328;28;20285;-72
2022/03/30 05:50:34;;;;;;;10.63;2.20;;;;;;;4.22;85.47;100785.16;5030972;28;20573;-73
2022/03/30 05:53:00;;;;;;;9.17;2.87;;;;;;;4.19;84.99;100780.84;5050082;28;20194;-72
2022/03/30 05:55:25;;;;;;;9.30;2.40;;;;;;;4.21;85.23;100783.44;5050206;28;20213;-73
2022/03/30 05:57:51;;;;;;;8.70;4.50;;;;;;;4.22;84.85;100787.69;5049879;28;20252;-73
2022/03/30 06:00:16;;;;;;;8.77;2.90;;;;;;;4.22;84.98;100780.97;5060920;28;20279;-72
2022/03/30 06:02:41;;;;;;;13.43;7.63;;;;;;;4.23;85.38;100784.41;5069567;28;20662;-73
2022/03/30 06:05:07;;;;;;;10.70;5.10;;;;;;;4.21;85.86;100791.03;5063477;28;20189;-73
2022/03/30 06:07:33;;;;;;;9.93;2.70;;;;;;;4.25;85.85;100788.72;5061498;28;20224;-73
2022/03/30 06:09:59;;;;;;;8.83;3.77;;;;;;;4.25;86.30;100788.72;5069812;28;20181;-73
2022/03/30 06:12:24;;;;;;;6.70;3.37;;;;;;;4.19;86.69;100792.66;5069805;28;20189;-73
2022/03/30 06:14:51;;;;;;;9.23;3.90;;;;;;;4.26;86.33;100792.09;5068474;28;20212;-73
2022/03/30 06:17:18;;;;;;;10.80;4.33;;;;;;;4.26;85.67;100792.09;5029933;28;20209;-73
2022/03/30 06:19:46;;;;;;;13.13;7.60;;;;;;;4.31;86.23;100798.25;5051515;28;20220;-73
2022/03/30 06:22:12;;;;;;;6.77;3.10;;;;;;;4.28;86.57;100793.06;5066677;28;20205;-73
2022/03/30 06:24:39;;;;;;;8.50;3.67;;;;;;;4.21;86.87;100796.13;5069646;28;20651;-73
2022/03/30 06:27:06;;;;;;;8.73;4.80;;;;;;;4.25;86.49;100803.06;5069707;28;20280;-73
2022/03/30 06:29:33;;;;;;;8.93;3.00;;;;;;;4.31;86.61;100799.13;5069606;28;20181;-73
2022/03/30 06:31:58;;;;;;;10.97;2.70;;;;;;;4.30;86.53;100801.56;5069656;28;20185;-73
2022/03/30 06:34:24;;;;;;;10.30;3.23;;;;;;;4.33;86.30;100797.50;5069210;28;20255;-73
2022/03/30 06:36:49;;;;;;;13.73;3.67;;;;;;;4.38;86.27;100803.63;5063434;28;20202;-73
2022/03/30 06:39:15;;;;;;;11.07;3.13;;;;;;;4.39;85.63;100799.44;5049593;28;20236;-73
2022/03/30 06:41:42;;;;;;;10.53;2.93;;;;;;;4.39;85.95;100801.97;5049486;28;20211;-73
2022/03/30 06:44:08;;;;;;;12.37;2.87;;;;;;;4.40;86.42;100802.03;5049152;28;20196;-73
2022/03/30 06:46:38;;;;;;;10.60;2.47;;;;;;;4.46;85.39;100798.91;5049316;28;20226;-73
2022/03/30 06:49:04;;;;;;;8.97;2.27;;;;;;;4.50;84.94;100806.69;5049236;28;20193;-74
2022/03/30 06:51:29;;;;;;;6.43;2.20;;;;;;;4.53;85.39;100799.25;5048126;28;20186;-73
2022/03/30 06:53:55;;;;;;;8.60;2.47;;;;;;;4.62;85.00;100796.22;5049224;28;20185;-73
2022/03/30 06:56:20;;;;;;;6.53;2.00;;;;;;;4.70;83.96;100797.41;5049460;28;20578;-74
2022/03/30 06:58:46;;;;;;;5.57;1.73;;;;;;;4.69;83.89;100795.69;5048074;28;20209;-74
2022/03/30 07:01:14;;;;;;;7.37;1.83;;;;;;;4.76;84.56;100795.13;5049386;28;20272;-74
2022/03/30 07:03:40;;;;;;;5.10;2.10;;;;;;;4.76;84.82;100797.66;5047542;28;20289;-73
2022/03/30 07:06:05;;;;;;;8.53;2.37;;;;;;;4.77;84.70;100802.78;5049211;28;20296;-74
2022/03/30 07:11:14;;;;;;;10.00;2.63;;;;;;;4.86;84.37;100799.75;5049243;28;20670;-74
2022/03/30 07:13:39;;;;;;;7.47;2.00;;;;;;;4.91;85.00;100789.00;5040672;28;20198;-73
2022/03/30 07:16:05;;;;;;;9.13;2.50;;;;;;;4.85;85.79;100790.41;5042344;28;20262;-73
2022/03/30 07:18:30;;;;;;;6.53;1.90;;;;;;;4.93;84.70;100792.44;5062804;28;20226;-73
2022/03/30 07:20:56;;;;;;;6.53;2.23;;;;;;;5.00;84.14;100791.91;5063757;28;20186;-74
2022/03/30 07:23:23;;;;;;;9.00;2.30;;;;;;;4.95;83.96;100793.41;5049041;28;20417;-74
2022/03/30 07:25:49;;;;;;;8.20;2.30;;;;;;;5.04;81.93;100788.69;5049141;28;20202;-73
2022/03/30 07:28:16;;;;;;;6.43;2.00;;;;;;;5.07;82.71;100783.72;5047855;28;20194;-74
2022/03/30 07:30:45;;;;;;;4.43;2.13;;;;;;;5.09;83.40;100788.88;5048061;28;20583;-74
2022/03/30 07:33:11;;;;;;;5.77;1.63;;;;;;;5.10;82.52;100788.06;5048749;28;20221;-75
2022/03/30 07:35:39;;;;;;;4.40;1.70;;;;;;;5.23;82.45;100782.66;5039541;28;20658;-74
2022/03/30 07:38:05;;;;;;;6.20;1.93;;;;;;;5.22;83.12;100784.34;5035495;28;20191;-72
2022/03/30 07:40:31;;;;;;;5.03;2.23;;;;;;;5.26;82.70;100785.34;5028463;28;20280;-74
2022/03/30 07:42:57;;;;;;;6.00;1.87;;;;;;;5.29;81.88;100782.94;5028487;28;20711;-73
2022/03/30 07:45:24;;;;;;;8.43;1.70;;;;;;;5.28;82.36;100779.50;5028536;28;20182;-73
2022/03/30 07:47:51;;;;;;;6.60;2.00;;;;;;;5.34;82.60;100774.66;5028472;28;20711;-73
2022/03/30 07:50:16;;;;;;;9.63;2.37;;;;;;;5.22;82.11;100780.94;5030861;28;20244;-71
2022/03/30 07:52:42;;;;;;;6.30;1.50;;;;;;;5.21;81.87;100777.53;5042365;28;20190;-73
2022/03/30 07:55:09;;;;;;;4.10;1.27;;;;;;;5.34;81.12;100781.44;5052271;28;20213;-73
2022/03/30 07:57:36;;;;;;;4.13;1.40;;;;;;;5.41;81.07;100780.84;5052168;28;20206;-73
2022/03/30 08:00:06;;;;;;;4.43;1.50;;;;;;;5.48;81.13;100782.81;5051894;28;20244;-71
2022/03/30 08:02:31;;;;;;;3.70;1.40;;;;;;;5.48;80.74;100780.28;5051359;28;20888;-73
2022/03/30 08:04:56;;;;;;;3.23;1.40;;;;;;;5.50;80.14;100777.00;5042741;28;20213;-73
2022/03/30 08:07:22;;;;;;;9.50;3.53;;;;;;;5.59;80.38;100777.34;5016994;28;20222;-72
2022/03/30 08:09:48;;;;;;;10.73;5.43;;;;;;;5.53;81.31;100779.63;5030032;28;20212;-73
2022/03/30 08:12:15;;;;;;;14.17;6.80;;;;;;;5.69;82.17;100776.88;5034520;28;20197;-71
2022/03/30 08:14:41;;;;;;;17.90;10.57;;;;;;;5.78;81.41;100777.22;5048282;28;20222;-72
2022/03/30 08:17:07;;;;;;;9.80;5.30;;;;;;;5.75;81.34;100772.00;5059625;28;20220;-74
2022/03/30 08:19:32;;;;;;;5.63;1.80;;;;;;;5.74;80.51;100777.91;5067749;28;20216;-75
2022/03/30 08:24:46;;;;;;;7.53;2.07;;;;;;;5.93;81.45;100779.47;5037874;28;20260;-73
2022/03/30 08:27:14;;;;;;;8.80;2.47;;;;;;;6.03;80.74;100777.31;5049694;28;20730;-73
2022/03/30 08:29:40;;;;;;;6.70;2.50;;;;;;;6.03;79.48;100773.94;5105490;22;20245;-74
2022/03/30 08:32:05;;;;;;;6.83;2.27;;;;;;;6.02;80.52;100774.72;5032636;28;20194;-74
2022/03/30 08:34:30;;;;;;;4.63;2.40;;;;;;;6.16;79.32;100773.53;5031926;28;20222;-74
2022/03/30 08:36:58;;;;;;;4.77;2.00;;;;;;;6.23;77.99;100767.88;5051151;28;20190;-73
2022/03/30 08:39:24;;;;;;;10.70;7.27;;;;;;;6.37;78.89;100764.13;5049018;28;20205;-72
2022/03/30 08:41:49;;;;;;;5.17;2.37;;;;;;;6.47;79.09;100771.25;5039056;28;20275;-73
2022/03/30 08:44:17;;;;;;;5.23;1.87;;;;;;;6.56;78.79;100764.81;5051035;28;20184;-73
2022/03/30 08:46:45;;;;;;;5.07;2.03;;;;;;;6.73;77.75;100766.22;5040200;28;20234;-77
2022/03/30 08:49:12;;;;;;;2.20;1.27;;;;;;;6.77;76.01;100767.22;5041560;28;20210;-74
2022/03/30 08:51:39;;;;;;;1.57;0.97;;;;;;;6.97;75.29;100761.97;5044883;28;20695;-75
2022/03/30 08:54:09;;;;;;;5.60;3.00;;;;;;;6.93;77.09;100766.88;5049478;28;20192;-75
2022/03/30 08:56:36;;;;;;;5.43;3.20;;;;;;;6.82;77.27;100764.00;5033103;28;20185;-75
2022/03/30 08:59:04;;;;;;;6.47;2.87;;;;;;;6.91;77.38;100766.84;5051057;28;20292;-76
2022/03/30 09:01:34;;;;;;;3.13;1.70;;;;;;;6.75;77.31;100762.06;5050913;28;20177;-74
2022/03/30 09:04:01;;;;;;;3.70;1.30;;;;;;;6.85;76.83;100764.09;5050837;28;20646;-76
2022/03/30 09:06:29;;;;;;;4.23;1.40;;;;;;;6.60;76.31;100769.22;5026617;28;20242;-75
2022/03/30 09:08:57;;;;;;;3.60;1.43;;;;;;;6.69;78.29;100764.44;5030749;28;20246;-75
2022/03/30 09:11:26;;;;;;;3.93;1.30;;;;;;;6.77;78.47;100769.75;5030714;28;20240;-75
2022/03/30 09:14:05;;;;;;;5.50;1.50;;;;;;;6.76;76.94;100773.97;5035984;28;20244;-72
2022/03/30 09:16:45;;;;;;;3.30;1.20;;;;;;;6.57;75.62;100771.63;5039825;28;20254;-73
2022/03/30 09:19:13;;;;;;;1.97;1.20;;;;;;;6.60;76.62;100766.66;5032861;28;20310;-74
2022/03/30 09:21:50;;;;;;;3.43;1.33;;;;;;;6.63;77.04;100766.75;5029199;28;20199;-75
2022/03/30 09:24:19;;;;;;;3.57;1.37;;;;;;;6.64;75.60;100767.63;5030426;28;20253;-75
2022/03/30 09:26:45;;;;;;;3.37;1.20;;;;;;;6.49;76.65;100762.88;5030624;28;20666;-75
2022/03/30 09:29:11;;;;;;;2.57;1.30;;;;;;;6.50;77.07;100766.28;5031590;28;20217;-76
2022/03/30 09:31:39;;;;;;;4.97;2.10;;;;;;;6.59;76.14;100762.34;5034160;28;20304;-77
2022/03/30 09:34:06;;;;;;;3.67;1.90;;;;;;;6.72;76.49;100764.50;5049129;28;20276;-76
2022/03/30 09:36:35;;;;;;;6.17;1.60;;;;;;;6.69;74.96;100761.88;5032990;28;20182;-76
2022/03/30 09:39:02;;;;;;;4.60;1.13;;;;;;;6.79;75.27;100763.03;5043505;28;20214;-76
2022/03/30 09:41:44;;;;;;;3.77;1.33;;;;;;;6.81;73.88;100758.88;5032102;28;20178;-74
2022/03/30 09:44:09;;;;;;;2.27;0.93;;;;;;;6.84;71.94;100753.88;5062327;28;20190;-73
2022/03/30 09:46:50;;;;;;;2.43;1.20;;;;;;;7.01;72.96;100752.75;5065214;28;20290;-74
2022/03/30 09:49:34;;;;;;;3.93;1.07;;;;;;;6.89;72.81;100753.22;5045126;28;20690;-75
2022/03/30 09:51:59;;;;;;;2.27;1.30;;;;;;;7.07;74.05;100752.91;5062754;28;20242;-74
2022/03/30 09:54:38;;;;;;;2.83;1.03;;;;;;;7.18;73.25;100751.59;5050288;28;20800;-74
2022/03/30 09:57:12;;;;;;;2.17;1.33;;;;;;;7.29;73.53;100753.66;5049978;28;20661;-72
2022/03/30 09:59:59;;;;;;;1.87;1.10;;;;;;;7.24;73.25;100751.78;5049348;28;20237;-74
2022/03/30 10:02:27;;;;;;;3.73;1.47;;;;;;;7.34;74.27;100747.00;5048702;28;20190;-74
2022/03/30 10:04:53;;;;;;;1.60;1.07;;;;;;;7.37;75.12;100753.88;5049864;28;20264;-74
2022/03/30 10:07:20;;;;;;;2.77;1.30;;;;;;;7.44;72.70;100745.59;5041333;28;20701;-75
2022/03/30 10:09:47;;;;;;;2.60;1.00;;;;;;;7.44;71.12;100746.47;5049700;28;20210;-75
2022/03/30 10:12:16;;;;;;;2.80;1.30;;;;;;;7.48;71.62;100733.00;5048291;28;20190;-74
2022/03/30 10:14:41;;;;;;;3.03;0.90;;;;;;;7.52;71.68;100736.50;5049852;28;20263;-75
2022/03/30 10:17:07;;;;;;;4.20;1.17;;;;;;;7.56;70.16;100734.06;5050067;28;20190;-73
2022/03/30 10:19:32;;;;;;;5.23;1.40;;;;;;;7.65;72.49;100738.59;5065154;28;20220;-75
2022/03/30 10:22:01;;;;;;;1.97;1.00;;;;;;;7.86;72.25;100732.44;5050056;28;20284;-74
2022/03/30 10:24:43;;;;;;;2.27;1.17;;;;;;;7.94;68.84;100730.97;5048485;28;20312;-75
2022/03/30 10:27:21;;;;;;;2.60;0.97;;;;;;;7.97;68.51;100728.47;5050114;28;20186;-75
2022/03/30 10:29:53;;;;;;;4.30;1.37;;;;;;;7.91;68.91;100725.75;5065053;28;20220;-75
2022/03/30 10:32:24;;;;;;;3.70;1.23;;;;;;;7.97;68.83;100725.09;5049755;28;20723;-72
2022/03/30 10:34:59;;;;;;;3.00;1.40;;;;;;;7.89;71.09;100726.53;5049515;28;20213;-73
2022/03/30 10:37:24;;;;;;;2.53;1.50;;;;;;;7.91;72.41;100723.22;5048401;28;20189;-73
2022/03/30 10:40:00;;;;;;;2.73;1.17;;;;;;;7.95;70.82;100717.38;5036495;28;20261;-73
2022/03/30 10:42:25;;;;;;;3.30;1.43;;;;;;;7.91;69.59;100718.13;5048014;28;20198;-73
2022/03/30 10:44:58;;;;;;;2.70;1.10;;;;;;;8.03;69.03;100712.50;5049312;28;20189;-73
2022/03/30 10:47:29;;;;;;;2.27;1.30;;;;;;;7.84;68.89;100723.84;5049033;28;20213;-74
2022/03/30 10:50:07;;;;;;;3.20;1.50;;;;;;;7.72;68.52;100717.56;5044287;28;20252;-73
2022/03/30 10:52:47;;;;;;;1.73;1.00;;;;;;;7.62;68.37;100711.34;5029681;28;20273;-74
2022/03/30 10:55:12;;;;;;;4.57;1.30;;;;;;;7.64;69.91;100704.59;5029798;28;20217;-73
2022/03/30 10:57:58;;;;;;;2.00;1.33;;;;;;;7.72;69.65;100703.13;5028510;28;20178;-73
2022/03/30 11:00:29;;;;;;;1.90;1.23;;;;;;;7.93;69.47;100693.53;5029471;28;20627;-73
2022/03/30 11:03:16;;;;;;;1.77;1.10;;;;;;;8.22;67.09;100697.75;5029487;28;20164;-73
2022/03/30 11:05:58;;;;;;;3.43;1.40;;;;;;;8.53;64.91;100684.09;5028389;28;20527;-73
2022/03/30 11:08:33;;;;;;;2.27;1.17;;;;;;;8.82;64.16;100673.75;5029475;28;20572;-73
2022/03/30 11:11:20;;;;;;;3.83;1.20;;;;;;;9.08;63.50;100670.09;5029181;28;20213;-74
2022/03/30 11:13:45;;;;;;;4.53;1.67;;;;;;;9.39;63.60;100672.50;5029082;28;20206;-74
2022/03/30 11:16:13;;;;;;;4.37;1.30;;;;;;;9.59;62.02;100666.09;5028056;28;20250;-74
2022/03/30 11:19:02;;;;;;;2.27;1.10;;;;;;;9.89;61.07;100665.81;5029206;28;20598;-73
2022/03/30 11:21:28;;;;;;;3.80;1.20;;;;;;;9.54;59.69;100665.13;5028129;28;20222;-72
2022/03/30 11:24:04;;;;;;;2.63;0.93;;;;;;;9.45;59.92;100662.38;5031040;28;20181;-73
2022/03/30 11:26:48;;;;;;;1.97;1.10;;;;;;;9.29;59.89;100662.03;5032003;28;20193;-73
2022/03/30 11:29:41;;;;;;;3.07;1.03;;;;;;;8.99;61.53;100669.03;5037055;28;20241;-73
2022/03/30 11:32:18;;;;;;;3.17;1.10;;;;;;;8.93;62.37;100658.66;5041360;28;20550;-73
2022/03/30 11:34:45;;;;;;;3.33;1.30;;;;;;;9.33;62.85;100659.59;5031769;28;20221;-72
2022/03/30 11:37:10;;;;;;;1.47;1.10;;;;;;;9.19;62.43;100665.22;5015494;28;20179;-73
2022/03/30 11:39:36;;;;;;;3.57;1.40;;;;;;;9.25;63.90;100666.22;5031851;28;20206;-73
2022/03/30 11:42:01;;;;;;;2.47;1.40;;;;;;;9.13;64.30;100663.41;5048031;28;20556;-74